Πλησιέστερες Αναφορές METAR

 

LGTS - Thessaloniki/Makedonia-Elev 7m
Απόσταση από σταθμό: Ν 13km
Ενημερώθηκε: 29/02/2024 00:50
Διάσπαρτα Νέφη
Διάσπαρτα Νέφη
 Ανεμοι από μεταβλητός
Ανεμος: μεταβλητός 4 km/h
Θερμοκρασία: 12°C
Σημείο Δρόσου: 12°C
Υγρασία: 100%
Βαρόμετρο: 1021 hPa
Νέφωση: Διάσπαρτα Νέφη
Ορατότητα: 8 km
Λεπτομέρειες Νεφών: Διάσπαρτα Νέφη 305 m
2024/02/28 22:50 LGTS 282250Z VRB02KT 8000 FEW010 12/12 Q1021 NOSIG
LGAV - Athens/Elef. Venizelos-Elev 94m
Απόσταση από σταθμό: ΝΝΑ 312km
Ενημερώθηκε: 29/02/2024 00:50
Σχεδόν νεφελώδης
Σχεδόν νεφελώδης
 Ανεμοι από μεταβλητός
Ανεμος: μεταβλητός 2 km/h
Θερμοκρασία: 15°C
Σημείο Δρόσου: 13°C
Υγρασία: 88%
Βαρόμετρο: 1021 hPa
Νέφωση: Σχεδόν νεφελώδης
Ορατότητα: 10 km
Λεπτομέρειες Νεφών: Μερικώς νεφελώδης 457 m
Σχεδόν νεφελώδης 1372 m
2024/02/28 22:50 LGAV 282250Z VRB01KT 9999 SCT015 BKN045 15/13 Q1021 NOSIG
 
LGAL - Alexandroupolis-Elev 3m
Απόσταση από σταθμό: Α 251km
Ενημερώθηκε: 29/02/2024 00:50
Αίθριος
Αίθριος
 Ανεμοι από άπνοια
Ανεμος: άπνοια
Θερμοκρασία: 7°C
Σημείο Δρόσου: 6°C
Υγρασία: 93%
Βαρόμετρο: 1021 hPa
Περίληψη: Αίθριος
Ορατότητα: πάνω από 10 km
2024/02/28 22:50 LGAL 282250Z 00000KT CAVOK 07/06 Q1021
LGKV - Kavala/Crysoupolis-Elev 5m
Απόσταση από σταθμό: ΑΒΑ 144km
Ενημερώθηκε: 28/02/2024 19:50
ΜΗ Ενημερωμένο METAR!
Διάσπαρτα Νέφη
Διάσπαρτα Νέφη
 Ανεμοι από άπνοια
Ανεμος: άπνοια
Θερμοκρασία: 11°C
Σημείο Δρόσου: 7°C
Υγρασία: 77%
Βαρόμετρο: 1021 hPa
Νέφωση: Διάσπαρτα Νέφη
Ορατότητα: 10 km
Λεπτομέρειες Νεφών: Διάσπαρτα Νέφη 762 m
2024/02/28 17:50 LGKV 281750Z 00000KT 9999 FEW025 11/07 Q1021
 
LGSK - Skiathos Island-Elev 15m
Απόσταση από σταθμό: ΝΝΑ 168km
Ενημερώθηκε: 27/02/2024 19:50
ΜΗ Ενημερωμένο METAR!
Διάσπαρτα Νέφη
Διάσπαρτα Νέφη
 Ανεμοι από μεταβλητός
Ανεμος: μεταβλητός 6 km/h
Θερμοκρασία: 15°C
Σημείο Δρόσου: 12°C
Υγρασία: 82%
Βαρόμετρο: 1018 hPa
Νέφωση: Διάσπαρτα Νέφη
Ορατότητα: 10 km
Λεπτομέρειες Νεφών: Διάσπαρτα Νέφη 610 m
2024/02/27 17:50 LGSK 271750Z VRB03KT 9999 FEW020 15/12 Q1018
LGLM - Limnos Island-Elev 5m
Απόσταση από σταθμό: ΑΝΑ 210km
Ενημερώθηκε: 29/02/2024 00:50
Αχλύς, Μερικώς νεφελώδης
Αχλύς, Μερικώς νεφελώδης
 Ανεμοι από άπνοια
Ανεμος: άπνοια
Θερμοκρασία: 10°C
Σημείο Δρόσου: 9°C
Υγρασία: 94%
Βαρόμετρο: 1021 hPa
Περίληψη: Αχλύς
Νέφωση: Μερικώς νεφελώδης
Ορατότητα: 5 km
2024/02/28 22:50 LGLM 282250Z 00000KT 5000 BR NSC 10/09 Q1021
 
LGMT - Mitilini Island-Elev 17m
Απόσταση από σταθμό: ΑΝΑ 358km
Ενημερώθηκε: 28/02/2024 22:50
ΜΗ Ενημερωμένο METAR!
Διάσπαρτα Νέφη
Διάσπαρτα Νέφη
 Ανεμοι από Δ
Ανεμος: Δ 7 km/h
Θερμοκρασία: 13°C
Σημείο Δρόσου: 9°C
Υγρασία: 77%
Βαρόμετρο: 1022 hPa
Νέφωση: Διάσπαρτα Νέφη
Ορατότητα: 10 km
Λεπτομέρειες Νεφών: Διάσπαρτα Νέφη 762 m
2024/02/28 20:50 LGMT 282050Z 26004KT 9999 FEW025 13/09 Q1022
LGSY - Skiros Island-Elev 15m
Απόσταση από σταθμό: ΝΑ 227km
Ενημερώθηκε: 28/02/2024 20:50
ΜΗ Ενημερωμένο METAR!
Διάσπαρτα Νέφη
Διάσπαρτα Νέφη
 Ανεμοι από ΑΝΑ
Ανεμος: ΑΝΑ 15 km/h
Θερμοκρασία: 16°C
Σημείο Δρόσου: 14°C
Υγρασία: 88%
Βαρόμετρο: 1020 hPa
Νέφωση: Διάσπαρτα Νέφη
Ορατότητα: 10 km
Λεπτομέρειες Νεφών: Διάσπαρτα Νέφη 610 m
2024/02/28 18:50 LGSY 281850Z 11008KT 9999 FEW020 16/14 Q1020 RMK BKN080 FEW180 BLU
 
LGKZ - Kozani-Elev 628m
Απόσταση από σταθμό: ΔΝΔ 102km
Ενημερώθηκε: 29/02/2024 00:50

 Ανεμοι από άπνοια
Ανεμος: άπνοια
Θερμοκρασία: 9°C
Σημείο Δρόσου: 8°C
Υγρασία: 94%
Βαρόμετρο: 1021 hPa
2024/02/28 22:50 LGKZ 282250Z AUTO 00000KT //// // ////// 09/08 Q1021 RE//
LGIO - Ioannina-Elev 476m
Απόσταση από σταθμό: ΔΝΔ 209km
Ενημερώθηκε: 29/02/2024 00:50
Ασθενής βροχή
Ασθενής βροχή
 Ανεμοι από άπνοια
Ανεμος: άπνοια
Θερμοκρασία: 13°C
Σημείο Δρόσου: 7°C
Υγρασία: 67%
Βαρόμετρο: 1016 hPa
Περίληψη: Ασθενής βροχή
2024/02/28 22:50 LGIO 282250Z AUTO 00000KT //// -RA ////// 13/07 Q1016 RE//
 
LGZA - Zakinthos-Elev 3m
Απόσταση από σταθμό: ΝΝΔ 367km
Ενημερώθηκε: 28/02/2024 19:50
ΜΗ Ενημερωμένο METAR!
Διάσπαρτα Νέφη
Διάσπαρτα Νέφη
 Ανεμοι από ΝΑ
Ανεμος: ΝΑ 22 km/h
Θερμοκρασία: 17°C
Σημείο Δρόσου: 14°C
Υγρασία: 83%
Βαρόμετρο: 1015 hPa
Νέφωση: Διάσπαρτα Νέφη
Ορατότητα: 10 km
Λεπτομέρειες Νεφών: Διάσπαρτα Νέφη 549 m
2024/02/28 17:50 LGZA 281750Z 13012KT 9999 FEW018 17/14 Q1015
LGKR - Corfu Island-Elev 2m
Απόσταση από σταθμό: ΔΝΔ 282km
Ενημερώθηκε: 29/02/2024 00:50
Μερικώς νεφελώδης
Μερικώς νεφελώδης
 Ανεμοι από άπνοια
Ανεμος: άπνοια
Θερμοκρασία: 14°C
Σημείο Δρόσου: 12°C
Υγρασία: 88%
Βαρόμετρο: 1014 hPa
Νέφωση: Μερικώς νεφελώδης
Ορατότητα: 10 km
Λεπτομέρειες Νεφών: Διάσπαρτα Νέφη 610 m
Μερικώς νεφελώδης 2438 m
2024/02/28 22:50 LGKR 282250Z 00000KT 9999 FEW020 SCT080 14/12 Q1014 NOSIG
 
LGSO - Syros Island-Elev 72m
Απόσταση από σταθμό: ΝΝΑ 397km
Ενημερώθηκε: 29/02/2024 00:50

 Ανεμοι από ΑΝΑ
Ανεμος: ΑΝΑ 7 km/h
Θερμοκρασία: 15°C
Σημείο Δρόσου: 13°C
Υγρασία: 88%
Βαρόμετρο: 1020 hPa
2024/02/28 22:50 LGSO 282250Z AUTO 12004KT //// // ////// 15/13 Q1020 RE//
LGMK - Mikonos Island-Elev 123m
Απόσταση από σταθμό: ΝΝΑ 412km
Ενημερώθηκε: 28/02/2024 23:50
ΜΗ Ενημερωμένο METAR!
Διάσπαρτα Νέφη
Διάσπαρτα Νέφη
 Ανεμοι από ΑΝΑ
Ανεμος: ΑΝΑ 13 km/h
Θερμοκρασία: 15°C
Σημείο Δρόσου: 8°C
Υγρασία: 63%
Βαρόμετρο: 1020 hPa
Νέφωση: Διάσπαρτα Νέφη
Ορατότητα: 10 km
Λεπτομέρειες Νεφών: Διάσπαρτα Νέφη 488 m
2024/02/28 21:50 LGMK 282150Z 11007KT 9999 FEW016 15/08 Q1020
 
LGSR - Santorini Island-Elev 40m
Απόσταση από σταθμό: ΝΝΑ 520km
Ενημερώθηκε: 28/02/2024 23:50
ΜΗ Ενημερωμένο METAR!
Μερικώς νεφελώδης
Μερικώς νεφελώδης
 Ανεμοι από ΝΑ
Ανεμος: ΝΑ 39 km/h
Θερμοκρασία: 17°C
Σημείο Δρόσου: 14°C
Υγρασία: 83%
Βαρόμετρο: 1019 hPa
Νέφωση: Μερικώς νεφελώδης
Ορατότητα: 10 km
Λεπτομέρειες Νεφών: Μερικώς νεφελώδης 610 m
2024/02/28 21:50 LGSR 282150Z 13021KT 9999 SCT020 17/14 Q1019
LGKL - Kalamata-Elev 8m
Απόσταση από σταθμό: Ν 405km
Ενημερώθηκε: 29/02/2024 00:50
Διάσπαρτα Νέφη
Διάσπαρτα Νέφη
 Ανεμοι από άπνοια
Ανεμος: άπνοια
Θερμοκρασία: 12°C
Σημείο Δρόσου: 11°C
Υγρασία: 94%
Βαρόμετρο: 1015 hPa
Νέφωση: Διάσπαρτα Νέφη
Ορατότητα: 10 km
Λεπτομέρειες Νεφών: Διάσπαρτα Νέφη 762 m
2024/02/28 22:50 LGKL 282250Z 00000KT 9999 FEW025 12/11 Q1015
 
LGIR - Iraklion/Crete-Elev 5m
Απόσταση από σταθμό: ΝΝΑ 622km
Ενημερώθηκε: 29/02/2024 00:50
Διάσπαρτα Νέφη
Διάσπαρτα Νέφη
 Ανεμοι από ΝΝΑ
Ανεμος: ΝΝΑ 17 km/h
Θερμοκρασία: 18°C
Σημείο Δρόσου: 15°C
Υγρασία: 83%
Βαρόμετρο: 1018 hPa
Νέφωση: Διάσπαρτα Νέφη
Ορατότητα: 10 km
Λεπτομέρειες Νεφών: Διάσπαρτα Νέφη 610 m
2024/02/28 22:50 LGIR 282250Z 16009KT 9999 FEW020 18/15 Q1018 NOSIG
LGRP - Rhodes-Elev 5m
Απόσταση από σταθμό: ΝΑ 649km
Ενημερώθηκε: 29/02/2024 00:50
Διάσπαρτα Νέφη
Διάσπαρτα Νέφη
 Ανεμοι από ΑΝΑ
Ανεμος: ΑΝΑ 9 km/h
Θερμοκρασία: 15°C
Σημείο Δρόσου: 12°C
Υγρασία: 82%
Βαρόμετρο: 1021 hPa
Νέφωση: Διάσπαρτα Νέφη
Ορατότητα: 10 km
Λεπτομέρειες Νεφών: Διάσπαρτα Νέφη 549 m
2024/02/28 22:50 LGRP 282250Z 12005KT 090V150 9999 FEW018 15/12 Q1021 NOSIG
 
LWOH - Ohrid/FYROM-Elev 761m
Απόσταση από σταθμό: ΔΒΔ 188km
Ενημερώθηκε: 28/02/2024 22:00
ΜΗ Ενημερωμένο METAR!
Σχεδόν νεφελώδης
Σχεδόν νεφελώδης
 Ανεμοι από ΑΒΑ
Ανεμος: ΑΒΑ 9 km/h
Θερμοκρασία: 12°C
Σημείο Δρόσου: 5°C
Υγρασία: 63%
Βαρόμετρο: 1019 hPa
Νέφωση: Σχεδόν νεφελώδης
Ορατότητα: 10 km
Λεπτομέρειες Νεφών: Σχεδόν νεφελώδης 1219 m
2024/02/28 20:00 LWOH 282000Z 07005KT 9999 BKN040 12/05 Q1019
LBSF - Sofia/Bulgaria-Elev 595m
Απόσταση από σταθμό: Β 227km
Ενημερώθηκε: 29/02/2024 01:00
Αίθριος
Αίθριος
 Ανεμοι από μεταβλητός
Ανεμος: μεταβλητός 4 km/h
Θερμοκρασία: 7°C
Σημείο Δρόσου: 4°C
Υγρασία: 81%
Βαρόμετρο: 1021 hPa
Νέφωση: Αίθριος
Ορατότητα: 10 km
2024/02/28 23:00 LBSF 282300Z AUTO VRB02KT 9999 NCD 07/04 Q1021 NOSIG